Time;durP1;ratioP1;P1;durP2;ratioP2;P2;SDS_P1;SDS_P2;PMS_P1;PMS_P2;Temp;Humidity;BMP_temperature;BMP_pressure;BME280_temperature;BME280_humidity;BME280_pressure;Samples;Min_cycle;Max_cycle;Signal;HPM_P1;HPM_P2
2021/09/05 00:01:16;;;;;;;15.10;11.68;;;;;;;;;;5068608;28;20016;-62
2021/09/05 00:03:42;;;;;;;14.32;11.05;;;;;;;;;;5069609;28;20028;-63
2021/09/05 00:06:07;;;;;;;15.48;11.43;;;;;;;;;;5074278;28;20123;-63
2021/09/05 00:08:33;;;;;;;15.05;12.50;;;;;;;;;;5089069;28;20024;-63
2021/09/05 00:10:58;;;;;;;20.13;12.40;;;;;;;;;;5090446;28;20465;-63
2021/09/05 00:13:24;;;;;;;14.55;11.90;;;;;;;;;;5090543;28;20476;-62
2021/09/05 00:15:49;;;;;;;13.45;11.60;;;;;;;;;;5088241;28;20363;-62
2021/09/05 00:18:14;;;;;;;14.10;11.15;;;;;;;;;;5088656;28;20024;-63
2021/09/05 00:20:40;;;;;;;14.50;11.38;;;;;;;;;;5072352;28;20778;-63
2021/09/05 00:23:05;;;;;;;13.30;11.10;;;;;;;;;;5070101;28;20029;-63
2021/09/05 00:25:31;;;;;;;15.70;11.85;;;;;;;;;;5066900;28;20759;-65
2021/09/05 00:27:57;;;;;;;12.65;10.80;;;;;;;;;;5069407;28;20111;-63
2021/09/05 00:30:23;;;;;;;12.30;10.90;;;;;;;;;;5070520;28;20068;-64
2021/09/05 00:32:48;;;;;;;13.05;11.05;;;;;;;;;;5070815;28;20056;-63
2021/09/05 00:35:14;;;;;;;14.02;11.18;;;;;;;;;;5061368;28;20580;-63
2021/09/05 00:37:40;;;;;;;13.93;10.82;;;;;;;;;;5069650;28;20466;-63
2021/09/05 00:40:07;;;;;;;13.38;10.65;;;;;;;;;;5071729;28;20020;-63
2021/09/05 00:42:32;;;;;;;13.40;10.60;;;;;;;;;;5070007;28;20074;-63
2021/09/05 00:44:58;;;;;;;15.60;11.15;;;;;;;;;;5070067;28;20056;-63
2021/09/05 00:47:23;;;;;;;12.70;10.25;;;;;;;;;;5070096;28;20028;-63
2021/09/05 00:49:51;;;;;;;12.90;10.75;;;;;;;;;;5068351;28;20115;-65
2021/09/05 00:52:18;;;;;;;11.88;10.15;;;;;;;;;;5068366;28;20397;-63
2021/09/05 00:54:44;;;;;;;12.65;10.38;;;;;;;;;;5069131;28;20050;-66
2021/09/05 00:57:16;;;;;;;14.30;11.00;;;;;;;;;;5070056;28;20032;-62
2021/09/05 00:59:45;;;;;;;13.77;10.32;;;;;;;;;;5070087;28;20029;-64
2021/09/05 01:02:10;;;;;;;12.95;10.43;;;;;;;;;;5069472;28;20028;-64
2021/09/05 01:04:36;;;;;;;13.23;10.65;;;;;;;;;;5069533;28;20028;-63
2021/09/05 01:07:02;;;;;;;14.18;10.75;;;;;;;;;;5068710;28;20036;-64
2021/09/05 01:09:28;;;;;;;12.38;10.13;;;;;;;;;;5067839;28;20063;-63
2021/09/05 01:11:55;;;;;;;12.52;9.85;;;;;;;;;;5069773;28;20067;-64
2021/09/05 01:14:21;;;;;;;12.10;10.07;;;;;;;;;;5069295;28;20032;-63
2021/09/05 01:16:47;;;;;;;13.05;10.15;;;;;;;;;;5070248;28;20040;-64
2021/09/05 01:19:15;;;;;;;12.25;10.95;;;;;;;;;;5076428;28;20806;-63
2021/09/05 01:21:42;;;;;;;13.43;10.90;;;;;;;;;;5073382;28;20429;-62
2021/09/05 01:24:08;;;;;;;13.20;10.98;;;;;;;;;;5070873;28;20032;-64
2021/09/05 01:26:36;;;;;;;13.60;10.82;;;;;;;;;;5073479;28;20089;-65
2021/09/05 01:29:06;;;;;;;12.07;10.35;;;;;;;;;;5073713;28;20100;-63
2021/09/05 01:31:49;;;;;;;14.65;10.48;;;;;;;;;;5072642;28;20024;-63
2021/09/05 01:34:17;;;;;;;12.77;10.18;;;;;;;;;;5071587;28;20197;-63
2021/09/05 01:36:43;;;;;;;13.50;11.35;;;;;;;;;;5072676;28;20060;-62
2021/09/05 01:39:11;;;;;;;12.37;10.83;;;;;;;;;;5072236;28;20024;-63
2021/09/05 01:41:37;;;;;;;12.52;10.43;;;;;;;;;;5072555;28;20290;-62
2021/09/05 01:44:05;;;;;;;14.52;10.85;;;;;;;;;;5072503;28;20067;-64
2021/09/05 01:46:30;;;;;;;12.98;11.10;;;;;;;;;;5071698;28;20032;-63
2021/09/05 01:48:57;;;;;;;11.40;9.90;;;;;;;;;;5072788;28;20073;-64
2021/09/05 01:51:22;;;;;;;15.30;10.35;;;;;;;;;;5072065;28;20040;-64
2021/09/05 01:53:48;;;;;;;13.57;10.88;;;;;;;;;;5071638;28;20378;-62
2021/09/05 01:56:14;;;;;;;14.35;10.85;;;;;;;;;;5055032;28;20024;-62
2021/09/05 01:58:39;;;;;;;13.15;10.30;;;;;;;;;;5053377;28;20040;-63
2021/09/05 02:01:05;;;;;;;16.13;10.73;;;;;;;;;;5051232;28;20505;-64
2021/09/05 02:03:30;;;;;;;12.07;9.98;;;;;;;;;;5052912;28;20025;-64
2021/09/05 02:05:56;;;;;;;13.45;10.07;;;;;;;;;;5055301;28;20020;-63
2021/09/05 02:08:22;;;;;;;12.52;10.07;;;;;;;;;;5071484;28;20040;-63
2021/09/05 02:10:47;;;;;;;14.80;10.20;;;;;;;;;;5070974;28;20457;-63
2021/09/05 02:13:12;;;;;;;11.75;10.20;;;;;;;;;;5073402;28;20056;-62
2021/09/05 02:15:38;;;;;;;13.82;10.30;;;;;;;;;;5071171;28;20454;-63
2021/09/05 02:18:03;;;;;;;15.30;10.52;;;;;;;;;;5071630;28;20038;-65
2021/09/05 02:20:28;;;;;;;13.02;9.82;;;;;;;;;;5069871;28;20067;-63
2021/09/05 02:22:55;;;;;;;12.48;9.70;;;;;;;;;;5072655;28;20385;-62
2021/09/05 02:25:20;;;;;;;11.73;9.90;;;;;;;;;;5074496;28;20027;-62
2021/09/05 02:27:46;;;;;;;11.50;9.88;;;;;;;;;;5072838;28;20016;-64
2021/09/05 02:30:12;;;;;;;12.50;10.13;;;;;;;;;;5071787;28;20024;-62
2021/09/05 02:32:38;;;;;;;13.60;10.27;;;;;;;;;;5071835;28;20100;-62
2021/09/05 02:35:05;;;;;;;13.25;9.90;;;;;;;;;;5064614;28;20144;-62
2021/09/05 02:37:30;;;;;;;12.18;10.88;;;;;;;;;;5070335;28;20028;-63
2021/09/05 02:39:56;;;;;;;13.48;10.95;;;;;;;;;;5074378;28;20162;-63
2021/09/05 02:42:21;;;;;;;12.57;9.98;;;;;;;;;;5071042;28;20051;-63
2021/09/05 02:44:47;;;;;;;13.07;10.82;;;;;;;;;;5070638;28;20491;-64
2021/09/05 02:47:12;;;;;;;13.45;10.77;;;;;;;;;;5072043;28;20024;-63
2021/09/05 02:49:38;;;;;;;11.30;9.90;;;;;;;;;;5070529;28;20039;-62
2021/09/05 02:52:05;;;;;;;14.50;11.02;;;;;;;;;;5071788;28;20024;-63
2021/09/05 02:54:31;;;;;;;13.52;9.73;;;;;;;;;;5070691;28;20111;-63
2021/09/05 02:56:56;;;;;;;14.43;10.35;;;;;;;;;;5070044;28;20116;-63
2021/09/05 02:59:22;;;;;;;12.93;10.15;;;;;;;;;;5072001;28;20038;-64
2021/09/05 03:01:47;;;;;;;14.65;10.52;;;;;;;;;;5071697;28;20398;-63
2021/09/05 03:04:12;;;;;;;14.00;10.50;;;;;;;;;;5071053;28;20810;-64
2021/09/05 03:06:38;;;;;;;16.83;10.38;;;;;;;;;;5069680;28;20024;-63
2021/09/05 03:09:03;;;;;;;15.15;9.77;;;;;;;;;;5070945;28;20043;-63
2021/09/05 03:11:28;;;;;;;14.02;10.13;;;;;;;;;;5072821;28;20700;-62
2021/09/05 03:13:54;;;;;;;12.70;10.10;;;;;;;;;;5071903;28;20075;-62
2021/09/05 03:16:19;;;;;;;15.73;10.68;;;;;;;;;;5069992;28;20020;-63
2021/09/05 03:18:45;;;;;;;11.80;10.18;;;;;;;;;;5073607;28;20020;-62
2021/09/05 03:21:10;;;;;;;13.02;10.52;;;;;;;;;;5068788;28;20470;-63
2021/09/05 03:23:36;;;;;;;12.65;9.80;;;;;;;;;;5070361;28;20023;-63
2021/09/05 03:26:01;;;;;;;14.88;10.77;;;;;;;;;;5052001;28;20052;-63
2021/09/05 03:28:27;;;;;;;11.98;9.77;;;;;;;;;;5051633;28;20514;-63
2021/09/05 03:30:52;;;;;;;12.30;9.85;;;;;;;;;;5071962;28;20500;-62
2021/09/05 03:33:17;;;;;;;12.30;10.13;;;;;;;;;;5071378;28;20526;-63
2021/09/05 03:35:43;;;;;;;12.13;9.82;;;;;;;;;;5069130;28;20060;-62
2021/09/05 03:38:08;;;;;;;12.25;10.23;;;;;;;;;;5069872;28;20027;-63
2021/09/05 03:40:34;;;;;;;13.95;9.38;;;;;;;;;;5068351;28;20031;-64
2021/09/05 03:42:59;;;;;;;11.75;10.23;;;;;;;;;;5069807;28;20024;-62
2021/09/05 03:45:24;;;;;;;12.60;9.52;;;;;;;;;;5069018;28;20047;-66
2021/09/05 03:47:50;;;;;;;12.95;10.05;;;;;;;;;;5068366;28;20021;-64
2021/09/05 03:50:15;;;;;;;13.65;10.02;;;;;;;;;;5068842;28;20025;-63
2021/09/05 03:52:42;;;;;;;12.63;9.98;;;;;;;;;;5070735;28;20024;-63
2021/09/05 03:55:08;;;;;;;13.32;10.00;;;;;;;;;;5061891;28;20462;-63
2021/09/05 03:57:34;;;;;;;13.45;10.18;;;;;;;;;;5049240;28;20063;-63
2021/09/05 03:59:59;;;;;;;14.27;10.10;;;;;;;;;;5051078;28;20520;-63
2021/09/05 04:02:24;;;;;;;13.38;9.77;;;;;;;;;;5049626;28;20086;-63
2021/09/05 04:04:49;;;;;;;12.10;9.80;;;;;;;;;;5054170;28;20103;-62
2021/09/05 04:07:18;;;;;;;13.63;10.23;;;;;;;;;;5069885;28;20040;-64
2021/09/05 04:12:27;;;;;;;14.30;10.70;;;;;;;;;;5069850;28;20035;-63
2021/09/05 04:14:52;;;;;;;13.05;10.20;;;;;;;;;;5069478;28;20021;-63
2021/09/05 04:17:18;;;;;;;14.13;10.55;;;;;;;;;;5070360;28;20032;-62
2021/09/05 04:19:43;;;;;;;13.50;10.27;;;;;;;;;;5069947;28;20493;-63
2021/09/05 04:22:09;;;;;;;12.70;9.40;;;;;;;;;;5067949;28;20039;-63
2021/09/05 04:24:34;;;;;;;13.63;10.10;;;;;;;;;;5069785;28;20032;-63
2021/09/05 04:27:00;;;;;;;11.60;10.00;;;;;;;;;;5087457;28;20036;-63
2021/09/05 04:29:25;;;;;;;11.60;9.75;;;;;;;;;;5087613;28;20089;-63
2021/09/05 04:31:51;;;;;;;12.30;10.18;;;;;;;;;;5089023;28;20027;-64
2021/09/05 04:34:16;;;;;;;11.88;10.07;;;;;;;;;;5089964;28;20040;-63
2021/09/05 04:36:41;;;;;;;12.93;9.65;;;;;;;;;;5078214;28;20016;-64
2021/09/05 04:39:07;;;;;;;11.90;9.30;;;;;;;;;;5069464;28;20478;-63
2021/09/05 04:41:32;;;;;;;14.52;10.55;;;;;;;;;;5070095;28;20474;-62
2021/09/05 04:43:58;;;;;;;15.02;9.68;;;;;;;;;;5066372;28;20056;-64
2021/09/05 04:46:24;;;;;;;14.80;10.55;;;;;;;;;;5056775;28;20501;-64
2021/09/05 04:48:50;;;;;;;15.65;10.43;;;;;;;;;;5068919;28;20168;-63
2021/09/05 04:51:15;;;;;;;13.65;10.05;;;;;;;;;;5068742;28;20461;-62
2021/09/05 04:53:41;;;;;;;12.70;10.10;;;;;;;;;;5074248;28;20091;-62
2021/09/05 04:56:06;;;;;;;12.80;10.05;;;;;;;;;;5072060;28;20034;-64
2021/09/05 04:58:31;;;;;;;12.90;9.25;;;;;;;;;;5072895;28;20447;-66
2021/09/05 05:00:57;;;;;;;11.85;9.70;;;;;;;;;;5073151;28;20028;-64
2021/09/05 05:03:22;;;;;;;12.43;9.27;;;;;;;;;;5073728;28;20023;-63
2021/09/05 05:05:48;;;;;;;13.23;9.70;;;;;;;;;;5072679;28;20036;-63
2021/09/05 05:08:14;;;;;;;15.48;9.82;;;;;;;;;;5075166;28;20028;-64
2021/09/05 05:10:39;;;;;;;15.02;9.95;;;;;;;;;;5071808;28;20054;-64
2021/09/05 05:13:04;;;;;;;13.93;10.20;;;;;;;;;;5074435;28;20417;-63
2021/09/05 05:15:30;;;;;;;13.18;9.57;;;;;;;;;;5073945;28;20131;-64
2021/09/05 05:17:55;;;;;;;13.32;10.15;;;;;;;;;;5073715;28;20462;-66
2021/09/05 05:20:20;;;;;;;11.38;9.35;;;;;;;;;;5073719;28;20039;-65
2021/09/05 05:22:46;;;;;;;13.02;9.85;;;;;;;;;;5071691;28;20116;-65
2021/09/05 05:25:12;;;;;;;13.23;9.10;;;;;;;;;;4700777;28;10000330;-67
2021/09/05 05:27:39;;;;;;;12.43;9.23;;;;;;;;;;5055562;28;20738;-65
2021/09/05 05:30:05;;;;;;;13.52;9.88;;;;;;;;;;5057820;28;20044;-64
2021/09/05 05:32:31;;;;;;;13.30;9.63;;;;;;;;;;5057450;28;20421;-65
2021/09/05 05:34:56;;;;;;;13.20;9.65;;;;;;;;;;5056276;28;20482;-65
2021/09/05 05:37:21;;;;;;;12.82;10.13;;;;;;;;;;5055227;28;20108;-64
2021/09/05 05:39:47;;;;;;;13.85;9.82;;;;;;;;;;5055425;28;20029;-66
2021/09/05 05:42:12;;;;;;;11.68;9.35;;;;;;;;;;5056895;28;20556;-64
2021/09/05 05:44:40;;;;;;;13.18;9.70;;;;;;;;;;5057134;28;20055;-67
2021/09/05 05:47:06;;;;;;;12.90;9.48;;;;;;;;;;5055950;28;20031;-64
2021/09/05 05:49:34;;;;;;;13.20;9.50;;;;;;;;;;5055143;28;20037;-66
2021/09/05 05:51:59;;;;;;;11.88;9.43;;;;;;;;;;5055451;28;20086;-67
2021/09/05 05:54:25;;;;;;;13.05;9.68;;;;;;;;;;5055009;28;20056;-65
2021/09/05 05:56:52;;;;;;;12.98;9.55;;;;;;;;;;5056718;28;20028;-67
2021/09/05 05:59:18;;;;;;;12.13;9.90;;;;;;;;;;5058102;28;20382;-65
2021/09/05 06:01:43;;;;;;;11.38;9.45;;;;;;;;;;5054964;28;20016;-64
2021/09/05 06:04:10;;;;;;;11.95;9.05;;;;;;;;;;5053379;28;20025;-65
2021/09/05 06:06:35;;;;;;;13.07;9.55;;;;;;;;;;5054741;28;20165;-65
2021/09/05 06:09:01;;;;;;;13.00;9.65;;;;;;;;;;5055251;28;20811;-66
2021/09/05 06:11:27;;;;;;;11.60;9.48;;;;;;;;;;5054716;28;20025;-64
2021/09/05 06:13:53;;;;;;;12.82;9.07;;;;;;;;;;5054011;28;20112;-65
2021/09/05 06:16:18;;;;;;;10.40;9.05;;;;;;;;;;5053502;28;20067;-67
2021/09/05 06:18:44;;;;;;;13.55;9.52;;;;;;;;;;5054297;28;20781;-67
2021/09/05 06:21:09;;;;;;;12.90;9.50;;;;;;;;;;5056159;28;20060;-64
2021/09/05 06:23:34;;;;;;;13.18;9.60;;;;;;;;;;5055014;28;20021;-63
2021/09/05 06:26:00;;;;;;;11.05;8.95;;;;;;;;;;5053529;28;20078;-63
2021/09/05 06:28:25;;;;;;;9.15;8.13;;;;;;;;;;5056430;28;20040;-66
2021/09/05 06:30:51;;;;;;;13.15;9.43;;;;;;;;;;5058400;28;20058;-65
2021/09/05 06:33:16;;;;;;;11.48;8.57;;;;;;;;;;5055669;28;20029;-64
2021/09/05 06:35:41;;;;;;;12.23;9.48;;;;;;;;;;5056346;28;20183;-65
2021/09/05 06:38:07;;;;;;;12.10;9.07;;;;;;;;;;5055368;28;20556;-64
2021/09/05 06:40:32;;;;;;;11.90;9.20;;;;;;;;;;5054922;28;20040;-66
2021/09/05 06:42:58;;;;;;;11.88;9.13;;;;;;;;;;5058886;28;20013;-66
2021/09/05 06:45:23;;;;;;;14.80;9.23;;;;;;;;;;5055367;28;20036;-64
2021/09/05 06:47:48;;;;;;;11.02;8.73;;;;;;;;;;5055421;28;20021;-65
2021/09/05 06:50:14;;;;;;;10.45;8.50;;;;;;;;;;5055784;28;20033;-66
2021/09/05 06:52:39;;;;;;;12.18;9.18;;;;;;;;;;5055762;28;20028;-65
2021/09/05 06:55:05;;;;;;;13.40;9.25;;;;;;;;;;5055406;28;20043;-68
2021/09/05 06:57:30;;;;;;;12.82;9.95;;;;;;;;;;5055081;28;20150;-65
2021/09/05 06:59:55;;;;;;;11.07;9.35;;;;;;;;;;5055014;28;20028;-63
2021/09/05 07:02:21;;;;;;;11.82;9.90;;;;;;;;;;5054249;28;20558;-65
2021/09/05 07:04:47;;;;;;;11.35;9.25;;;;;;;;;;5050266;28;20024;-65
2021/09/05 07:07:12;;;;;;;16.13;9.93;;;;;;;;;;5061049;28;20029;-65
2021/09/05 07:09:38;;;;;;;14.02;10.18;;;;;;;;;;5058660;28;20031;-65
2021/09/05 07:12:04;;;;;;;12.82;10.00;;;;;;;;;;5054477;28;20037;-64
2021/09/05 07:14:29;;;;;;;14.35;10.10;;;;;;;;;;5055763;28;20055;-63
2021/09/05 07:16:54;;;;;;;15.18;10.35;;;;;;;;;;5056247;28;20082;-63
2021/09/05 07:19:20;;;;;;;15.80;10.70;;;;;;;;;;5054565;28;20065;-66
2021/09/05 07:21:45;;;;;;;14.43;10.57;;;;;;;;;;5058648;28;20036;-64
2021/09/05 07:24:10;;;;;;;15.30;10.70;;;;;;;;;;5055053;28;20032;-65
2021/09/05 07:26:37;;;;;;;13.32;10.35;;;;;;;;;;5054019;28;20021;-66
2021/09/05 07:29:03;;;;;;;16.10;11.35;;;;;;;;;;5053966;28;20051;-66
2021/09/05 07:31:30;;;;;;;13.00;10.10;;;;;;;;;;5056157;28;20154;-65
2021/09/05 07:33:56;;;;;;;13.95;10.27;;;;;;;;;;5055327;28;20611;-65
2021/09/05 07:36:21;;;;;;;15.40;11.10;;;;;;;;;;5052095;28;20115;-64
2021/09/05 07:38:46;;;;;;;14.95;10.68;;;;;;;;;;5052643;28;20052;-63
2021/09/05 07:41:13;;;;;;;15.00;10.35;;;;;;;;;;5054149;28;20024;-65
2021/09/05 07:43:40;;;;;;;14.30;11.13;;;;;;;;;;5054689;28;20029;-64
2021/09/05 07:46:05;;;;;;;13.95;10.43;;;;;;;;;;5054885;28;20031;-64
2021/09/05 07:48:31;;;;;;;16.17;10.65;;;;;;;;;;5054650;28;20028;-64
2021/09/05 07:50:56;;;;;;;16.20;10.68;;;;;;;;;;5054867;28;20029;-64
2021/09/05 07:53:21;;;;;;;15.13;10.32;;;;;;;;;;5055678;28;20024;-66
2021/09/05 07:55:47;;;;;;;16.02;10.77;;;;;;;;;;5053325;28;20710;-65
2021/09/05 07:58:12;;;;;;;14.70;10.55;;;;;;;;;;5052575;28;20564;-65
2021/09/05 08:00:37;;;;;;;12.23;9.70;;;;;;;;;;5054331;28;20378;-65
2021/09/05 08:03:03;;;;;;;16.52;10.90;;;;;;;;;;5054491;28;20021;-65
2021/09/05 08:05:28;;;;;;;18.08;11.38;;;;;;;;;;5052426;28;20091;-64
2021/09/05 08:07:54;;;;;;;15.63;11.15;;;;;;;;;;5054489;28;20025;-64
2021/09/05 08:10:19;;;;;;;15.10;10.50;;;;;;;;;;5054612;28;20498;-65
2021/09/05 08:12:45;;;;;;;16.00;10.77;;;;;;;;;;5053416;28;20021;-65
2021/09/05 08:15:10;;;;;;;14.30;11.55;;;;;;;;;;5055653;28;20443;-64
2021/09/05 08:17:36;;;;;;;16.55;11.23;;;;;;;;;;5051734;28;20056;-66
2021/09/05 08:20:01;;;;;;;14.82;10.52;;;;;;;;;;5050795;28;20086;-68
2021/09/05 08:22:27;;;;;;;15.00;11.48;;;;;;;;;;5052350;28;20082;-63
2021/09/05 08:24:52;;;;;;;15.20;11.10;;;;;;;;;;5050577;28;20087;-65
2021/09/05 08:27:18;;;;;;;14.73;10.80;;;;;;;;;;5051112;28;20052;-64
2021/09/05 08:29:43;;;;;;;16.75;11.35;;;;;;;;;;5058936;28;20036;-66
2021/09/05 08:32:08;;;;;;;14.10;10.98;;;;;;;;;;5061050;28;21513;-64
2021/09/05 08:34:34;;;;;;;14.98;10.60;;;;;;;;;;5055942;28;20768;-66
2021/09/05 08:37:08;;;;;;;14.43;10.88;;;;;;;;;;5057254;28;20056;-64
2021/09/05 08:39:34;;;;;;;16.50;11.00;;;;;;;;;;5059359;28;20032;-63
2021/09/05 08:41:59;;;;;;;15.13;10.90;;;;;;;;;;5056976;28;20034;-64
2021/09/05 08:44:25;;;;;;;17.40;10.30;;;;;;;;;;5056196;28;20111;-67
2021/09/05 08:46:52;;;;;;;13.10;9.80;;;;;;;;;;5057351;28;20037;-64
2021/09/05 08:49:19;;;;;;;15.45;10.50;;;;;;;;;;5055865;28;20116;-64
2021/09/05 08:51:44;;;;;;;13.18;10.20;;;;;;;;;;5057570;28;20032;-63
2021/09/05 08:54:10;;;;;;;14.35;10.18;;;;;;;;;;5057058;28;20420;-65
2021/09/05 08:56:38;;;;;;;13.98;11.00;;;;;;;;;;5055952;28;20476;-63
2021/09/05 08:59:03;;;;;;;13.43;10.00;;;;;;;;;;5056906;28;20485;-64
2021/09/05 09:01:29;;;;;;;13.48;10.60;;;;;;;;;;5057101;28;20032;-64
2021/09/05 09:04:10;;;;;;;14.18;10.05;;;;;;;;;;5056660;28;20406;-64
2021/09/05 09:06:40;;;;;;;12.65;9.57;;;;;;;;;;5058428;28;20041;-64
2021/09/05 09:09:07;;;;;;;12.48;10.23;;;;;;;;;;5056193;28;20109;-65
2021/09/05 09:11:58;;;;;;;13.00;9.40;;;;;;;;;;5057316;28;20036;-64
2021/09/05 09:14:46;;;;;;;15.63;9.77;;;;;;;;;;5057603;28;20048;-65
2021/09/05 09:17:14;;;;;;;14.30;10.57;;;;;;;;;;5057321;28;20017;-64
2021/09/05 09:19:45;;;;;;;12.57;9.85;;;;;;;;;;5058387;28;20024;-65
2021/09/05 09:22:19;;;;;;;11.27;9.48;;;;;;;;;;5055395;28;20048;-68
2021/09/05 09:24:45;;;;;;;12.30;9.73;;;;;;;;;;5053935;28;20133;-64
2021/09/05 09:27:11;;;;;;;11.37;9.60;;;;;;;;;;5057012;28;20021;-64
2021/09/05 09:29:38;;;;;;;12.25;10.32;;;;;;;;;;5061099;28;20028;-69
2021/09/05 09:32:05;;;;;;;;;;;;;;;;;;5059096;28;20115;-64
2021/09/05 09:34:48;;;;;;;14.13;10.23;;;;;;;;;;5053856;28;19955;-65
2021/09/05 09:37:22;;;;;;;12.90;9.98;;;;;;;;;;5056174;28;20028;-66
2021/09/05 09:39:54;;;;;;;12.23;9.32;;;;;;;;;;5055343;28;20028;-65
2021/09/05 09:42:36;;;;;;;13.40;10.20;;;;;;;;;;5054361;28;20029;-68
2021/09/05 09:45:13;;;;;;;11.90;9.98;;;;;;;;;;5057600;28;20356;-65
2021/09/05 09:47:50;;;;;;;11.65;9.02;;;;;;;;;;5054932;28;20179;-65
2021/09/05 09:50:17;;;;;;;11.77;9.63;;;;;;;;;;5061177;28;20032;-65
2021/09/05 09:52:44;;;;;;;15.32;9.82;;;;;;;;;;5054924;28;20046;-65
2021/09/05 09:55:10;;;;;;;10.65;9.48;;;;;;;;;;5054544;28;20538;-66
2021/09/05 09:57:35;;;;;;;13.20;9.57;;;;;;;;;;5053398;28;20611;-66
2021/09/05 10:00:02;;;;;;;12.27;9.30;;;;;;;;;;5053549;28;20021;-67
2021/09/05 10:02:29;;;;;;;11.10;9.23;;;;;;;;;;5054788;28;20504;-66
2021/09/05 10:04:56;;;;;;;12.80;9.98;;;;;;;;;;5055995;28;20033;-64
2021/09/05 10:07:28;;;;;;;11.65;9.00;;;;;;;;;;5055983;28;20159;-66
2021/09/05 10:09:54;;;;;;;13.05;9.65;;;;;;;;;;5054710;28;20086;-67
2021/09/05 10:12:20;;;;;;;11.32;9.63;;;;;;;;;;5055049;28;20055;-64
2021/09/05 10:14:52;;;;;;;12.20;9.50;;;;;;;;;;5056837;28;20029;-68
2021/09/05 10:17:18;;;;;;;11.85;9.35;;;;;;;;;;5055190;28;20508;-65
2021/09/05 10:19:44;;;;;;;11.88;9.35;;;;;;;;;;5057701;28;20036;-68
2021/09/05 10:22:10;;;;;;;11.67;9.13;;;;;;;;;;5054382;28;20024;-67
2021/09/05 10:24:47;;;;;;;11.87;9.43;;;;;;;;;;5054638;28;20036;-66
2021/09/05 10:27:14;;;;;;;10.88;9.30;;;;;;;;;;5053741;28;20123;-66
2021/09/05 10:30:02;;;;;;;;;;;;;;;;;;5055865;28;20071;-66
2021/09/05 10:32:41;;;;;;;11.25;9.20;;;;;;;;;;5052829;28;19917;-65
2021/09/05 10:35:25;;;;;;;12.75;9.52;;;;;;;;;;5056122;28;20560;-70
2021/09/05 10:38:21;;;;;;;11.77;9.57;;;;;;;;;;5059299;28;20417;-64
2021/09/05 10:40:49;;;;;;;;;;;;;;;;;;5060103;28;20060;-64
2021/09/05 10:43:15;;;;;;;10.85;8.93;;;;;;;;;;5055163;28;19909;-66
2021/09/05 10:45:44;;;;;;;15.38;10.43;;;;;;;;;;5054265;28;20021;-66
2021/09/05 10:48:32;;;;;;;12.07;9.70;;;;;;;;;;5055471;28;20386;-64
2021/09/05 10:51:04;;;;;;;11.00;9.18;;;;;;;;;;5060637;28;20585;-65
2021/09/05 10:53:35;;;;;;;12.10;9.90;;;;;;;;;;5056615;28;20044;-66
2021/09/05 10:56:23;;;;;;;10.30;9.20;;;;;;;;;;5054914;28;20034;-66
2021/09/05 10:59:06;;;;;;;11.52;9.48;;;;;;;;;;5056617;28;20343;-65
2021/09/05 11:01:31;;;;;;;12.20;9.30;;;;;;;;;;5053203;28;20024;-64
2021/09/05 11:04:12;;;;;;;11.13;9.20;;;;;;;;;;5055384;28;20054;-66
2021/09/05 11:06:48;;;;;;;10.45;9.35;;;;;;;;;;5055292;28;20060;-66
2021/09/05 11:09:20;;;;;;;14.55;9.60;;;;;;;;;;5054379;28;20668;-68
2021/09/05 11:12:14;;;;;;;12.77;9.00;;;;;;;;;;5056917;28;20058;-66
2021/09/05 11:14:40;;;;;;;10.93;8.38;;;;;;;;;;5056859;28;20689;-65
2021/09/05 11:17:11;;;;;;;10.23;8.27;;;;;;;;;;5052503;28;20040;-66
2021/09/05 11:19:50;;;;;;;10.57;8.73;;;;;;;;;;5057165;28;20036;-66
2021/09/05 11:22:18;;;;;;;10.05;8.38;;;;;;;;;;5058186;28;20025;-65
2021/09/05 11:24:45;;;;;;;9.98;8.48;;;;;;;;;;5053949;28;20021;-66
2021/09/05 11:27:12;;;;;;;10.00;7.50;;;;;;;;;;5058505;28;20664;-65
2021/09/05 11:29:38;;;;;;;10.32;8.20;;;;;;;;;;5053528;28;20016;-64
2021/09/05 11:32:05;;;;;;;10.23;8.40;;;;;;;;;;5056035;28;20465;-68
2021/09/05 11:34:32;;;;;;;10.57;7.05;;;;;;;;;;5057143;28;20044;-65
2021/09/05 11:36:58;;;;;;;;;;;;;;;;;;5055869;28;20067;-63
2021/09/05 11:39:23;;;;;;;8.98;7.22;;;;;;;;;;5052079;28;19917;-63
2021/09/05 11:41:57;;;;;;;8.80;7.63;;;;;;;;;;5055534;28;20036;-64
2021/09/05 11:44:29;;;;;;;7.22;6.53;;;;;;;;;;5056250;28;20783;-62
2021/09/05 11:47:10;;;;;;;8.55;7.18;;;;;;;;;;5053525;28;20722;-65
2021/09/05 11:49:45;;;;;;;11.00;8.15;;;;;;;;;;5053502;28;20016;-65
2021/09/05 11:52:11;;;;;;;12.93;7.70;;;;;;;;;;5051977;28;20028;-67
2021/09/05 11:54:36;;;;;;;9.73;7.93;;;;;;;;;;5053052;28;20017;-68
2021/09/05 11:57:02;;;;;;;10.37;8.17;;;;;;;;;;5052782;28;20105;-67
2021/09/05 11:59:28;;;;;;;9.77;7.47;;;;;;;;;;5052244;28;20226;-64
2021/09/05 12:01:54;;;;;;;8.97;6.40;;;;;;;;;;5052351;28;20021;-65
2021/09/05 12:04:20;;;;;;;7.23;6.50;;;;;;;;;;5052727;28;20032;-64
2021/09/05 12:06:46;;;;;;;8.30;5.95;;;;;;;;;;5052276;28;20025;-65
2021/09/05 12:09:12;;;;;;;7.70;6.00;;;;;;;;;;5053222;28;20028;-66
2021/09/05 12:12:01;;;;;;;8.07;6.60;;;;;;;;;;5056349;28;20099;-65
2021/09/05 12:14:34;;;;;;;8.30;6.97;;;;;;;;;;5056830;28;20043;-66
2021/09/05 12:17:20;;;;;;;7.85;7.00;;;;;;;;;;5056260;28;20032;-70
2021/09/05 12:20:06;;;;;;;7.90;6.40;;;;;;;;;;5054156;28;20036;-65
2021/09/05 12:22:42;;;;;;;7.43;5.35;;;;;;;;;;5053573;28;20623;-66
2021/09/05 12:25:21;;;;;;;7.10;5.45;;;;;;;;;;5055248;28;20047;-65
2021/09/05 12:28:04;;;;;;;5.90;5.25;;;;;;;;;;5055921;28;20029;-64
2021/09/05 12:30:56;;;;;;;5.95;5.35;;;;;;;;;;5052200;28;20028;-65
2021/09/05 12:33:27;;;;;;;8.98;4.90;;;;;;;;;;5055889;28;20568;-64
2021/09/05 12:36:16;;;;;;;5.40;4.85;;;;;;;;;;5053872;28;20037;-67
2021/09/05 12:38:53;;;;;;;6.55;4.78;;;;;;;;;;5052982;28;20024;-63
2021/09/05 12:41:19;;;;;;;9.40;4.93;;;;;;;;;;5052645;28;20037;-65
2021/09/05 12:43:47;;;;;;;5.13;4.60;;;;;;;;;;5057368;28;20028;-65
2021/09/05 12:46:15;;;;;;;5.35;4.38;;;;;;;;;;5054771;28;20032;-68
2021/09/05 12:48:42;;;;;;;7.28;4.80;;;;;;;;;;5053607;28;20035;-65
2021/09/05 12:51:11;;;;;;;5.70;4.72;;;;;;;;;;5056949;28;20074;-64
2021/09/05 12:53:50;;;;;;;4.80;4.30;;;;;;;;;;5054996;28;20029;-66
2021/09/05 12:56:15;;;;;;;7.47;5.07;;;;;;;;;;5053410;28;20036;-65
2021/09/05 12:58:40;;;;;;;4.83;4.40;;;;;;;;;;5054675;28;20039;-62
2021/09/05 13:01:06;;;;;;;5.70;4.70;;;;;;;;;;5053278;28;20056;-66
2021/09/05 13:03:31;;;;;;;5.60;4.93;;;;;;;;;;5054269;28;20029;-64
2021/09/05 13:05:56;;;;;;;6.90;5.07;;;;;;;;;;5053324;28;20091;-67
2021/09/05 13:08:22;;;;;;;8.23;4.77;;;;;;;;;;5054336;28;20415;-63
2021/09/05 13:10:47;;;;;;;6.10;4.90;;;;;;;;;;5053750;28;20024;-65
2021/09/05 13:13:13;;;;;;;7.13;4.73;;;;;;;;;;5049417;28;20037;-66
2021/09/05 13:15:38;;;;;;;7.20;4.77;;;;;;;;;;5050754;28;20032;-65
2021/09/05 13:18:04;;;;;;;7.47;4.50;;;;;;;;;;5055336;28;20052;-63
2021/09/05 13:20:29;;;;;;;5.37;4.57;;;;;;;;;;5062209;28;20033;-64
2021/09/05 13:22:54;;;;;;;7.70;4.50;;;;;;;;;;5058804;28;20121;-64
2021/09/05 13:25:20;;;;;;;5.90;4.53;;;;;;;;;;5052590;28;20021;-65
2021/09/05 13:27:45;;;;;;;6.07;4.27;;;;;;;;;;5061172;28;20090;-64
2021/09/05 13:30:13;;;;;;;5.07;4.07;;;;;;;;;;5070662;28;20020;-64
2021/09/05 13:32:39;;;;;;;5.05;4.03;;;;;;;;;;5061859;28;20025;-64
2021/09/05 13:35:05;;;;;;;6.10;4.50;;;;;;;;;;5059970;28;20789;-64
2021/09/05 13:37:30;;;;;;;5.38;4.18;;;;;;;;;;5082231;28;20038;-67
2021/09/05 13:39:56;;;;;;;4.70;4.20;;;;;;;;;;5088861;28;20031;-67
2021/09/05 13:42:21;;;;;;;5.60;4.43;;;;;;;;;;5090408;28;20051;-65
2021/09/05 13:44:47;;;;;;;7.33;4.27;;;;;;;;;;5091341;28;20104;-65
2021/09/05 13:47:12;;;;;;;5.73;4.60;;;;;;;;;;5091889;28;20055;-63
2021/09/05 13:49:37;;;;;;;4.63;4.17;;;;;;;;;;5090730;28;20475;-63
2021/09/05 13:52:03;;;;;;;5.17;4.10;;;;;;;;;;5091778;28;20111;-64
2021/09/05 13:54:28;;;;;;;4.87;4.17;;;;;;;;;;5091664;28;20355;-63
2021/09/05 13:56:54;;;;;;;5.07;4.10;;;;;;;;;;5092522;28;20024;-64
2021/09/05 13:59:19;;;;;;;8.57;4.57;;;;;;;;;;5092405;28;20028;-64
2021/09/05 14:01:44;;;;;;;6.47;4.60;;;;;;;;;;5092392;28;20063;-65
2021/09/05 14:04:10;;;;;;;5.00;4.07;;;;;;;;;;5091763;28;20032;-63
2021/09/05 14:06:35;;;;;;;4.77;4.30;;;;;;;;;;5078179;28;20024;-65
2021/09/05 14:09:00;;;;;;;6.50;4.03;;;;;;;;;;5071077;28;20038;-65
2021/09/05 14:11:26;;;;;;;4.93;4.07;;;;;;;;;;5066412;28;20039;-66
2021/09/05 14:13:51;;;;;;;4.80;4.30;;;;;;;;;;5063260;28;20032;-67
2021/09/05 14:16:17;;;;;;;4.40;4.00;;;;;;;;;;5065430;28;20126;-66
2021/09/05 14:18:42;;;;;;;6.13;4.03;;;;;;;;;;5066816;28;20076;-67
2021/09/05 14:21:08;;;;;;;4.10;3.77;;;;;;;;;;5066378;28;20058;-63
2021/09/05 14:23:34;;;;;;;4.97;4.43;;;;;;;;;;5066381;28;20060;-65
2021/09/05 14:26:01;;;;;;;5.35;3.95;;;;;;;;;;5063351;28;20107;-66
2021/09/05 14:28:38;;;;;;;4.40;4.00;;;;;;;;;;5064836;28;20032;-64
2021/09/05 14:31:11;;;;;;;4.90;4.50;;;;;;;;;;5055931;28;20027;-64
2021/09/05 14:55:03;;;;;;;5.15;4.25;;;;;;;;;;5070798;28;20115;-64